Time;durP1;ratioP1;P1;durP2;ratioP2;P2;SDS_P1;SDS_P2;PMS_P1;PMS_P2;Temp;Humidity;BMP_temperature;BMP_pressure;BME280_temperature;BME280_humidity;BME280_pressure;Samples;Min_cycle;Max_cycle;Signal;HPM_P1;HPM_P2
2021/04/18 00:01:05;;;;;;;7.38;4.53;;;;;;;;;;5092656;28;20190;-83
2021/04/18 00:03:33;;;;;;;8.38;5.32;;;;;;;;;;5092416;28;20227;-83
2021/04/18 00:06:00;;;;;;;5.28;4.65;;;;;;;;;;5091857;28;20592;-82
2021/04/18 00:08:27;;;;;;;6.78;5.20;;;;;;;;;;5088851;28;20188;-83
2021/04/18 00:10:54;;;;;;;7.07;5.22;;;;;;;;;;5081251;28;20193;-82
2021/04/18 00:13:21;;;;;;;6.55;5.03;;;;;;;;;;5079486;28;20197;-82
2021/04/18 00:15:48;;;;;;;6.95;6.05;;;;;;;;;;5079915;28;20197;-83
2021/04/18 00:18:15;;;;;;;5.55;4.97;;;;;;;;;;5081605;28;20242;-82
2021/04/18 00:20:43;;;;;;;7.70;5.30;;;;;;;;;;5081407;28;20204;-82
2021/04/18 00:23:10;;;;;;;6.68;5.95;;;;;;;;;;5089784;28;20227;-83
2021/04/18 00:25:37;;;;;;;5.35;4.40;;;;;;;;;;5095214;28;20210;-84
2021/04/18 00:28:04;;;;;;;5.68;4.45;;;;;;;;;;5094096;28;20241;-83
2021/04/18 00:30:32;;;;;;;4.90;4.30;;;;;;;;;;5086877;28;20246;-83
2021/04/18 00:32:59;;;;;;;5.13;4.57;;;;;;;;;;5085957;28;20214;-82
2021/04/18 00:35:27;;;;;;;5.80;4.22;;;;;;;;;;5086039;28;20201;-83
2021/04/18 00:37:54;;;;;;;5.28;4.05;;;;;;;;;;5084541;28;20185;-83
2021/04/18 00:40:23;;;;;;;7.53;4.25;;;;;;;;;;5085672;28;20203;-82
2021/04/18 00:42:51;;;;;;;7.22;4.32;;;;;;;;;;5086489;28;20220;-83
2021/04/18 00:45:19;;;;;;;6.15;4.63;;;;;;;;;;5086385;28;20208;-82
2021/04/18 00:47:49;;;;;;;6.18;5.05;;;;;;;;;;5085854;28;20184;-83
2021/04/18 00:50:23;;;;;;;6.82;4.47;;;;;;;;;;5085453;28;20185;-82
2021/04/18 00:52:51;;;;;;;6.93;5.80;;;;;;;;;;5085273;28;20212;-83
2021/04/18 00:55:20;;;;;;;5.88;5.22;;;;;;;;;;5084060;28;20211;-83
2021/04/18 00:57:47;;;;;;;6.07;4.60;;;;;;;;;;5084718;28;20629;-83
2021/04/18 01:00:16;;;;;;;9.20;5.30;;;;;;;;;;5086156;28;20667;-83
2021/04/18 01:02:43;;;;;;;5.78;5.22;;;;;;;;;;5084153;28;20217;-83
2021/04/18 01:05:11;;;;;;;6.47;4.68;;;;;;;;;;5083574;28;20200;-83
2021/04/18 01:07:38;;;;;;;6.63;4.88;;;;;;;;;;5086272;28;20264;-83
2021/04/18 01:10:09;;;;;;;6.18;4.53;;;;;;;;;;5084817;28;20610;-82
2021/04/18 01:12:37;;;;;;;5.75;4.68;;;;;;;;;;5083849;28;20220;-83
2021/04/18 01:15:06;;;;;;;5.70;4.85;;;;;;;;;;5084923;28;20246;-83
2021/04/18 01:17:33;;;;;;;7.28;4.82;;;;;;;;;;5089099;28;20192;-82
2021/04/18 01:20:00;;;;;;;5.70;5.18;;;;;;;;;;5095816;28;20651;-83
2021/04/18 01:22:27;;;;;;;6.90;5.32;;;;;;;;;;5095913;28;20224;-82
2021/04/18 01:24:55;;;;;;;7.40;4.47;;;;;;;;;;5096298;28;20192;-82
2021/04/18 01:27:23;;;;;;;6.18;4.88;;;;;;;;;;5095861;28;20220;-83
2021/04/18 01:29:50;;;;;;;8.40;5.88;;;;;;;;;;5096442;28;20201;-82
2021/04/18 01:32:20;;;;;;;5.75;4.72;;;;;;;;;;5095422;28;20230;-83
2021/04/18 01:34:48;;;;;;;6.78;5.25;;;;;;;;;;5096052;28;20200;-83
2021/04/18 01:37:17;;;;;;;8.73;5.50;;;;;;;;;;5095617;28;20287;-82
2021/04/18 01:39:46;;;;;;;4.93;4.40;;;;;;;;;;5096412;28;20208;-82
2021/04/18 01:42:13;;;;;;;8.68;5.18;;;;;;;;;;5095225;28;20220;-82
2021/04/18 01:44:40;;;;;;;7.95;5.47;;;;;;;;;;5095776;28;20201;-83
2021/04/18 01:47:07;;;;;;;6.20;4.72;;;;;;;;;;5094964;28;20734;-83
2021/04/18 01:49:34;;;;;;;5.82;4.90;;;;;;;;;;5095544;28;20218;-83
2021/04/18 01:52:01;;;;;;;5.95;4.90;;;;;;;;;;5095149;28;20224;-82
2021/04/18 01:54:28;;;;;;;7.05;5.53;;;;;;;;;;5095606;28;20204;-82
2021/04/18 01:56:56;;;;;;;5.82;5.22;;;;;;;;;;5095951;28;20200;-82
2021/04/18 01:59:23;;;;;;;5.93;5.32;;;;;;;;;;5095265;28;20291;-83
2021/04/18 02:01:50;;;;;;;5.15;4.65;;;;;;;;;;5095266;28;20220;-83
2021/04/18 02:04:19;;;;;;;7.78;5.85;;;;;;;;;;5094731;28;20240;-83
2021/04/18 02:06:46;;;;;;;5.97;5.30;;;;;;;;;;5095427;28;20216;-83
2021/04/18 02:09:13;;;;;;;7.43;5.80;;;;;;;;;;5094958;28;20630;-82
2021/04/18 02:11:41;;;;;;;7.88;5.60;;;;;;;;;;5094921;28;20216;-83
2021/04/18 02:14:09;;;;;;;6.93;6.22;;;;;;;;;;5094285;28;20620;-82
2021/04/18 02:16:36;;;;;;;8.43;6.35;;;;;;;;;;5094429;28;20222;-83
2021/04/18 02:19:04;;;;;;;10.18;5.90;;;;;;;;;;5095926;28;20211;-83
2021/04/18 02:21:31;;;;;;;9.57;6.30;;;;;;;;;;5095418;28;20230;-83
2021/04/18 02:23:59;;;;;;;6.65;5.40;;;;;;;;;;5096532;28;20204;-83
2021/04/18 02:26:26;;;;;;;6.90;5.90;;;;;;;;;;5095284;28;20225;-83
2021/04/18 02:28:53;;;;;;;7.63;5.30;;;;;;;;;;5095989;28;20192;-83
2021/04/18 02:31:21;;;;;;;6.47;5.25;;;;;;;;;;5095149;28;20220;-83
2021/04/18 02:33:48;;;;;;;8.38;5.55;;;;;;;;;;5095495;28;20204;-83
2021/04/18 02:36:15;;;;;;;12.60;6.22;;;;;;;;;;5094487;28;20200;-83
2021/04/18 02:38:42;;;;;;;8.00;5.68;;;;;;;;;;5094905;28;20208;-83
2021/04/18 02:41:08;;;;;;;7.93;5.90;;;;;;;;;;5095241;28;20215;-82
2021/04/18 02:43:35;;;;;;;6.75;5.93;;;;;;;;;;5095088;28;20727;-83
2021/04/18 02:46:02;;;;;;;6.55;5.60;;;;;;;;;;5094414;28;20226;-83
2021/04/18 02:48:30;;;;;;;7.97;5.45;;;;;;;;;;5094734;28;20203;-82
2021/04/18 02:50:57;;;;;;;7.88;5.50;;;;;;;;;;5095593;28;20204;-83
2021/04/18 02:53:24;;;;;;;8.18;5.60;;;;;;;;;;5094925;28;20207;-83
2021/04/18 02:55:51;;;;;;;6.68;5.80;;;;;;;;;;5095655;28;20204;-82
2021/04/18 02:58:18;;;;;;;11.63;5.55;;;;;;;;;;5096003;28;20265;-83
2021/04/18 03:00:45;;;;;;;6.65;5.20;;;;;;;;;;5097280;28;20212;-82
2021/04/18 03:03:12;;;;;;;7.45;5.30;;;;;;;;;;5099890;28;20286;-82
2021/04/18 03:05:40;;;;;;;7.45;5.82;;;;;;;;;;5098204;28;20211;-82
2021/04/18 03:08:08;;;;;;;5.72;5.22;;;;;;;;;;5096905;28;20277;-83
2021/04/18 03:10:35;;;;;;;6.53;5.85;;;;;;;;;;5097981;28;20204;-83
2021/04/18 03:13:02;;;;;;;6.25;5.38;;;;;;;;;;5098635;28;20273;-83
2021/04/18 03:15:30;;;;;;;6.65;5.78;;;;;;;;;;5097418;28;20218;-83
2021/04/18 03:17:57;;;;;;;7.47;5.43;;;;;;;;;;5096225;28;20203;-82
2021/04/18 03:20:24;;;;;;;6.30;5.40;;;;;;;;;;5094267;28;20201;-82
2021/04/18 03:22:52;;;;;;;8.40;5.85;;;;;;;;;;5094964;28;20277;-82
2021/04/18 03:25:19;;;;;;;8.68;5.38;;;;;;;;;;5092022;28;20263;-82
2021/04/18 03:27:46;;;;;;;8.88;5.47;;;;;;;;;;5092433;28;20220;-82
2021/04/18 03:30:15;;;;;;;9.85;5.97;;;;;;;;;;5092356;28;20208;-82
2021/04/18 03:32:42;;;;;;;6.47;5.53;;;;;;;;;;5092563;28;20219;-82
2021/04/18 03:35:10;;;;;;;6.22;5.38;;;;;;;;;;5091784;28;20204;-82
2021/04/18 03:37:37;;;;;;;7.75;5.43;;;;;;;;;;5092443;28;20196;-82
2021/04/18 03:40:07;;;;;;;12.02;5.75;;;;;;;;;;5092207;28;20626;-82
2021/04/18 03:42:34;;;;;;;8.13;5.65;;;;;;;;;;5092352;28;20593;-82
2021/04/18 03:45:01;;;;;;;8.90;6.60;;;;;;;;;;5091958;28;20253;-83
2021/04/18 03:47:29;;;;;;;10.65;6.80;;;;;;;;;;5092484;28;20235;-82
2021/04/18 03:49:56;;;;;;;7.32;6.55;;;;;;;;;;5092305;28;20196;-82
2021/04/18 03:52:24;;;;;;;6.68;5.93;;;;;;;;;;5092072;28;20224;-83
2021/04/18 03:54:51;;;;;;;9.40;8.50;;;;;;;;;;5092110;28;20204;-83
2021/04/18 03:57:18;;;;;;;8.43;6.32;;;;;;;;;;5092170;28;20266;-82
2021/04/18 03:59:45;;;;;;;7.93;6.00;;;;;;;;;;5092808;28;20261;-82
2021/04/18 04:02:12;;;;;;;8.15;6.85;;;;;;;;;;5092638;28;20472;-82
2021/04/18 04:04:39;;;;;;;7.82;6.45;;;;;;;;;;5093096;28;20200;-82
2021/04/18 04:07:06;;;;;;;7.05;6.28;;;;;;;;;;5093244;28;20281;-82
2021/04/18 04:09:33;;;;;;;6.97;6.18;;;;;;;;;;5092873;28;20210;-82
2021/04/18 04:12:00;;;;;;;8.13;5.72;;;;;;;;;;5091753;28;20228;-83
2021/04/18 04:14:28;;;;;;;6.72;5.82;;;;;;;;;;5091697;28;20208;-82
2021/04/18 04:16:55;;;;;;;9.23;6.93;;;;;;;;;;5092029;28;20188;-82
2021/04/18 04:19:22;;;;;;;7.30;5.47;;;;;;;;;;5091788;28;20250;-82
2021/04/18 04:21:49;;;;;;;10.35;7.78;;;;;;;;;;5091650;28;20771;-82
2021/04/18 04:24:16;;;;;;;9.35;7.35;;;;;;;;;;5091349;28;20207;-82
2021/04/18 04:26:43;;;;;;;7.00;6.35;;;;;;;;;;5091992;28;20242;-82
2021/04/18 04:29:10;;;;;;;11.70;7.60;;;;;;;;;;5092201;28;20204;-82
2021/04/18 04:31:38;;;;;;;8.98;7.35;;;;;;;;;;5091876;28;20224;-82
2021/04/18 04:34:05;;;;;;;7.50;5.95;;;;;;;;;;5092319;28;20192;-82
2021/04/18 04:36:32;;;;;;;8.90;5.97;;;;;;;;;;5091890;28;20253;-82
2021/04/18 04:38:59;;;;;;;9.32;7.57;;;;;;;;;;5092360;28;20204;-83
2021/04/18 04:41:26;;;;;;;10.02;6.95;;;;;;;;;;5092221;28;20587;-82
2021/04/18 04:43:53;;;;;;;10.65;6.20;;;;;;;;;;5092069;28;20200;-82
2021/04/18 04:46:20;;;;;;;9.27;7.28;;;;;;;;;;5091845;28;20555;-82
2021/04/18 04:48:48;;;;;;;10.20;7.45;;;;;;;;;;5092445;28;20224;-82
2021/04/18 04:51:14;;;;;;;10.85;7.80;;;;;;;;;;5092462;28;20231;-82
2021/04/18 04:53:41;;;;;;;9.15;7.60;;;;;;;;;;5091910;28;20208;-82
2021/04/18 04:56:08;;;;;;;10.73;6.47;;;;;;;;;;5091485;28;20250;-82
2021/04/18 04:58:35;;;;;;;8.48;6.65;;;;;;;;;;5091693;28;20200;-83
2021/04/18 05:01:02;;;;;;;10.18;7.55;;;;;;;;;;5092467;28;20201;-83
2021/04/18 05:03:29;;;;;;;10.88;7.70;;;;;;;;;;5092139;28;20327;-82
2021/04/18 05:05:57;;;;;;;8.70;7.13;;;;;;;;;;5092384;28;20257;-83
2021/04/18 05:08:24;;;;;;;8.40;7.22;;;;;;;;;;5091470;28;20224;-82
2021/04/18 05:10:51;;;;;;;14.15;7.43;;;;;;;;;;5092771;28;20285;-82
2021/04/18 05:13:17;;;;;;;11.23;7.55;;;;;;;;;;5095863;28;20208;-82
2021/04/18 05:15:44;;;;;;;8.25;7.38;;;;;;;;;;5095139;28;20230;-83
2021/04/18 05:18:11;;;;;;;8.65;7.75;;;;;;;;;;5095724;28;20260;-82
2021/04/18 05:20:38;;;;;;;9.38;7.30;;;;;;;;;;5095219;28;20204;-82
2021/04/18 05:23:06;;;;;;;8.38;6.60;;;;;;;;;;5095354;28;20228;-82
2021/04/18 05:25:33;;;;;;;7.72;6.93;;;;;;;;;;5094815;28;20192;-82
2021/04/18 05:28:00;;;;;;;13.05;7.70;;;;;;;;;;5094848;28;20224;-82
2021/04/18 05:30:27;;;;;;;9.77;7.45;;;;;;;;;;5095470;28;20196;-83
2021/04/18 05:32:54;;;;;;;9.18;7.00;;;;;;;;;;5094473;28;20218;-82
2021/04/18 05:35:21;;;;;;;10.38;6.85;;;;;;;;;;5094028;28;20215;-82
2021/04/18 05:37:48;;;;;;;8.35;6.53;;;;;;;;;;5094241;28;20200;-82
2021/04/18 05:40:16;;;;;;;9.55;6.75;;;;;;;;;;5094275;28;20184;-82
2021/04/18 05:42:43;;;;;;;9.00;6.90;;;;;;;;;;5094206;28;20213;-82
2021/04/18 05:45:11;;;;;;;11.65;7.93;;;;;;;;;;5094292;28;20203;-83
2021/04/18 05:47:38;;;;;;;9.27;7.47;;;;;;;;;;5095273;28;20224;-84
2021/04/18 05:50:07;;;;;;;10.50;7.57;;;;;;;;;;5095286;28;20699;-82
2021/04/18 05:52:34;;;;;;;8.55;7.63;;;;;;;;;;5095666;28;20216;-83
2021/04/18 05:55:01;;;;;;;9.10;6.97;;;;;;;;;;5094292;28;20662;-82
2021/04/18 05:57:28;;;;;;;7.05;6.35;;;;;;;;;;5095718;28;20193;-82
2021/04/18 05:59:55;;;;;;;9.15;6.78;;;;;;;;;;5095562;28;20237;-83
2021/04/18 06:02:22;;;;;;;9.13;7.75;;;;;;;;;;5094736;28;20227;-84
2021/04/18 06:04:49;;;;;;;9.25;7.63;;;;;;;;;;5095044;28;20201;-83
2021/04/18 06:07:16;;;;;;;8.02;7.15;;;;;;;;;;5094109;28;20249;-84
2021/04/18 06:09:43;;;;;;;8.77;7.68;;;;;;;;;;5094500;28;20193;-84
2021/04/18 06:12:10;;;;;;;9.02;7.10;;;;;;;;;;5094795;28;20596;-83
2021/04/18 06:14:38;;;;;;;8.52;7.60;;;;;;;;;;5095008;28;20584;-83
2021/04/18 06:17:05;;;;;;;9.70;7.97;;;;;;;;;;5094809;28;20204;-83
2021/04/18 06:19:32;;;;;;;10.30;9.02;;;;;;;;;;5094796;28;20199;-83
2021/04/18 06:21:59;;;;;;;13.88;9.68;;;;;;;;;;5095640;28;20777;-83
2021/04/18 06:24:26;;;;;;;8.45;7.55;;;;;;;;;;5095713;28;20196;-84
2021/04/18 06:26:53;;;;;;;11.32;8.98;;;;;;;;;;5095140;28;20196;-84
2021/04/18 06:29:20;;;;;;;9.15;7.38;;;;;;;;;;5096162;28;20284;-82
2021/04/18 06:31:48;;;;;;;10.60;8.90;;;;;;;;;;5096591;28;20208;-83
2021/04/18 06:34:15;;;;;;;12.73;8.82;;;;;;;;;;5094060;28;20313;-85
2021/04/18 06:36:42;;;;;;;12.52;9.20;;;;;;;;;;5094345;28;20283;-84
2021/04/18 06:39:09;;;;;;;12.98;8.57;;;;;;;;;;5093456;28;20258;-83
2021/04/18 06:41:36;;;;;;;11.05;7.95;;;;;;;;;;5093487;28;20224;-85
2021/04/18 06:44:04;;;;;;;8.93;7.72;;;;;;;;;;5094310;28;20564;-83
2021/04/18 06:46:32;;;;;;;11.18;8.90;;;;;;;;;;5093891;28;20577;-85
2021/04/18 06:49:00;;;;;;;11.60;8.85;;;;;;;;;;5093793;28;20204;-82
2021/04/18 06:51:27;;;;;;;10.48;8.77;;;;;;;;;;5094356;28;20722;-83
2021/04/18 06:53:53;;;;;;;10.70;8.50;;;;;;;;;;5094189;28;20184;-83
2021/04/18 06:56:20;;;;;;;11.88;8.90;;;;;;;;;;5093553;28;20670;-84
2021/04/18 06:58:47;;;;;;;10.95;9.15;;;;;;;;;;5093899;28;20200;-83
2021/04/18 07:01:14;;;;;;;10.00;8.48;;;;;;;;;;5093597;28;20220;-84
2021/04/18 07:03:41;;;;;;;14.52;9.82;;;;;;;;;;5093787;28;20283;-83
2021/04/18 07:06:09;;;;;;;10.32;8.23;;;;;;;;;;5093467;28;20234;-85
2021/04/18 07:08:36;;;;;;;12.98;9.40;;;;;;;;;;5092936;28;20228;-83
2021/04/18 07:11:15;;;;;;;10.70;8.40;;;;;;;;;;5093095;28;20204;-83
2021/04/18 07:13:45;;;;;;;10.52;9.25;;;;;;;;;;5093003;28;20408;-84
2021/04/18 07:16:26;;;;;;;12.38;9.98;;;;;;;;;;5092673;28;20200;-82
2021/04/18 07:18:54;;;;;;;11.82;8.57;;;;;;;;;;5092738;28;20200;-83
2021/04/18 07:21:22;;;;;;;11.07;8.57;;;;;;;;;;5092378;28;20220;-82
2021/04/18 07:23:49;;;;;;;9.90;7.93;;;;;;;;;;5092837;28;20562;-84
2021/04/18 07:26:26;;;;;;;11.75;9.50;;;;;;;;;;5092834;28;20202;-83
2021/04/18 07:29:10;;;;;;;10.77;9.05;;;;;;;;;;5092911;28;20283;-83
2021/04/18 07:31:37;;;;;;;12.77;7.18;;;;;;;;;;5093414;28;20289;-84
2021/04/18 07:34:07;;;;;;;14.15;7.65;;;;;;;;;;5092350;28;20204;-83
2021/04/18 07:36:38;;;;;;;11.10;7.93;;;;;;;;;;5092320;28;20291;-83
2021/04/18 07:39:08;;;;;;;10.77;9.30;;;;;;;;;;5093434;28;20576;-83
2021/04/18 07:41:39;;;;;;;10.15;8.80;;;;;;;;;;5093141;28;20222;-83
2021/04/18 07:44:08;;;;;;;8.80;7.90;;;;;;;;;;5093486;28;20545;-83
2021/04/18 07:46:35;;;;;;;9.50;7.97;;;;;;;;;;5092415;28;20196;-84
2021/04/18 07:49:02;;;;;;;11.27;9.27;;;;;;;;;;5092416;28;20314;-83
2021/04/18 07:51:29;;;;;;;9.57;8.57;;;;;;;;;;5091962;28;20216;-83
2021/04/18 07:53:57;;;;;;;10.80;8.77;;;;;;;;;;5092673;28;20261;-83
2021/04/18 07:56:24;;;;;;;10.38;8.48;;;;;;;;;;5091707;28;20667;-83
2021/04/18 07:58:51;;;;;;;11.85;8.38;;;;;;;;;;5091939;28;20211;-83
2021/04/18 08:01:18;;;;;;;10.70;8.65;;;;;;;;;;5092163;28;20220;-83
2021/04/18 08:03:46;;;;;;;10.63;8.25;;;;;;;;;;5091949;28;20231;-84
2021/04/18 08:06:13;;;;;;;11.35;8.38;;;;;;;;;;5092329;28;20196;-83
2021/04/18 08:08:47;;;;;;;8.98;8.05;;;;;;;;;;5093043;28;20637;-84
2021/04/18 08:11:18;;;;;;;10.93;8.65;;;;;;;;;;5092960;28;20256;-84
2021/04/18 08:13:48;;;;;;;9.50;7.65;;;;;;;;;;5093385;28;20196;-83
2021/04/18 08:16:16;;;;;;;11.25;8.15;;;;;;;;;;5092432;28;20177;-83
2021/04/18 08:18:46;;;;;;;9.20;7.45;;;;;;;;;;5093457;28;20199;-83
2021/04/18 08:21:30;;;;;;;10.13;7.78;;;;;;;;;;5092703;28;20227;-83
2021/04/18 08:23:58;;;;;;;11.50;8.57;;;;;;;;;;5092898;28;20200;-84
2021/04/18 08:26:27;;;;;;;10.50;8.50;;;;;;;;;;5093280;28;20200;-84
2021/04/18 08:29:09;;;;;;;13.18;7.82;;;;;;;;;;5091977;28;20281;-84
2021/04/18 08:32:11;;;;;;;8.93;7.75;;;;;;;;;;5092312;28;20307;-84
2021/04/18 08:34:42;;;;;;;12.57;9.40;;;;;;;;;;5092075;28;20208;-84
2021/04/18 08:37:24;;;;;;;11.27;8.02;;;;;;;;;;5092004;28;20216;-83
2021/04/18 08:39:51;;;;;;;9.00;7.88;;;;;;;;;;5089603;28;20253;-83
2021/04/18 08:42:30;;;;;;;9.80;8.18;;;;;;;;;;5092184;28;20228;-83
2021/04/18 08:44:58;;;;;;;8.07;6.93;;;;;;;;;;5093003;28;20243;-83
2021/04/18 08:47:29;;;;;;;9.57;7.45;;;;;;;;;;5096192;28;20215;-83
2021/04/18 08:50:05;;;;;;;10.85;7.72;;;;;;;;;;5096219;28;20600;-83
2021/04/18 08:52:34;;;;;;;8.27;7.43;;;;;;;;;;5095160;28;20215;-82
2021/04/18 08:55:05;;;;;;;10.82;7.07;;;;;;;;;;5095884;28;20204;-83
2021/04/18 08:57:33;;;;;;;11.40;7.80;;;;;;;;;;5095290;28;20197;-82
2021/04/18 09:00:03;;;;;;;8.65;7.50;;;;;;;;;;5096694;28;20212;-82
2021/04/18 09:02:30;;;;;;;8.25;7.43;;;;;;;;;;5085289;28;20212;-81
2021/04/18 09:04:59;;;;;;;7.55;6.75;;;;;;;;;;5083246;28;20651;-84
2021/04/18 09:07:28;;;;;;;8.43;7.10;;;;;;;;;;5090892;28;20255;-84
2021/04/18 09:09:58;;;;;;;9.15;7.28;;;;;;;;;;5084946;28;20250;-84
2021/04/18 09:12:26;;;;;;;11.43;7.57;;;;;;;;;;5082388;28;20221;-84
2021/04/18 09:14:54;;;;;;;8.95;7.53;;;;;;;;;;5085741;28;20237;-84
2021/04/18 09:17:23;;;;;;;8.82;7.30;;;;;;;;;;5083572;28;20188;-83
2021/04/18 09:19:51;;;;;;;7.47;6.78;;;;;;;;;;5082362;28;20189;-84
2021/04/18 09:22:20;;;;;;;7.95;7.15;;;;;;;;;;5083840;28;20220;-83
2021/04/18 09:24:53;;;;;;;9.43;7.68;;;;;;;;;;5083994;28;20647;-83
2021/04/18 09:27:24;;;;;;;10.93;7.85;;;;;;;;;;5085399;28;20205;-83
2021/04/18 09:29:54;;;;;;;7.93;7.05;;;;;;;;;;5082867;28;20216;-83
2021/04/18 09:32:24;;;;;;;8.82;7.80;;;;;;;;;;5084360;28;20212;-83
2021/04/18 09:34:51;;;;;;;10.98;7.70;;;;;;;;;;5085285;28;20748;-83
2021/04/18 09:37:23;;;;;;;8.20;6.72;;;;;;;;;;5085149;28;20196;-83
2021/04/18 09:39:55;;;;;;;10.70;9.15;;;;;;;;;;5085579;28;20194;-84
2021/04/18 09:42:24;;;;;;;10.90;7.57;;;;;;;;;;5083143;28;20597;-84
2021/04/18 09:44:54;;;;;;;7.90;7.10;;;;;;;;;;5085720;28;20216;-83
2021/04/18 09:47:27;;;;;;;11.77;8.40;;;;;;;;;;5083635;28;20201;-84
2021/04/18 09:49:57;;;;;;;8.82;7.72;;;;;;;;;;5083283;28;20699;-83
2021/04/18 09:52:31;;;;;;;11.07;7.68;;;;;;;;;;5083700;28;20213;-84
2021/04/18 09:55:16;;;;;;;11.35;8.60;;;;;;;;;;5082365;28;20211;-83
2021/04/18 09:57:55;;;;;;;11.43;8.52;;;;;;;;;;5083363;28;20200;-83
2021/04/18 10:00:26;;;;;;;9.30;7.07;;;;;;;;;;5083852;28;20197;-83
2021/04/18 10:03:06;;;;;;;13.95;9.15;;;;;;;;;;5082969;28;20226;-84
2021/04/18 10:05:36;;;;;;;9.88;8.55;;;;;;;;;;5082477;28;20193;-84
2021/04/18 10:08:18;;;;;;;9.95;7.38;;;;;;;;;;5085763;28;20589;-84
2021/04/18 10:10:47;;;;;;;11.20;8.40;;;;;;;;;;5082510;28;20568;-84
2021/04/18 10:13:14;;;;;;;8.80;6.95;;;;;;;;;;5084472;28;20574;-84
2021/04/18 10:15:53;;;;;;;10.70;8.00;;;;;;;;;;5081276;28;20185;-83
2021/04/18 10:18:21;;;;;;;10.18;8.32;;;;;;;;;;5072724;28;20259;-84
2021/04/18 10:20:48;;;;;;;10.32;7.68;;;;;;;;;;5073425;28;20185;-84
2021/04/18 10:23:17;;;;;;;10.35;8.25;;;;;;;;;;5072815;28;20205;-84
2021/04/18 10:25:44;;;;;;;9.25;8.15;;;;;;;;;;5072632;28;20182;-84
2021/04/18 10:28:11;;;;;;;10.00;7.63;;;;;;;;;;5073292;28;20227;-84
2021/04/18 10:30:40;;;;;;;8.52;6.80;;;;;;;;;;5072677;28;20256;-83
2021/04/18 10:33:08;;;;;;;10.35;8.48;;;;;;;;;;5073349;28;20633;-84
2021/04/18 10:35:35;;;;;;;11.60;8.60;;;;;;;;;;5073149;28;20189;-84
2021/04/18 10:38:02;;;;;;;11.18;8.25;;;;;;;;;;5073933;28;20208;-83
2021/04/18 10:40:29;;;;;;;10.65;7.28;;;;;;;;;;5074267;28;20276;-83
2021/04/18 10:42:56;;;;;;;10.82;9.68;;;;;;;;;;5073879;28;20221;-83
2021/04/18 10:45:24;;;;;;;8.63;7.38;;;;;;;;;;5074158;28;20208;-84
2021/04/18 10:47:51;;;;;;;8.30;7.50;;;;;;;;;;5074058;28;20193;-84
2021/04/18 10:50:18;;;;;;;8.48;7.45;;;;;;;;;;5074043;28;20296;-84
2021/04/18 10:52:45;;;;;;;12.13;9.90;;;;;;;;;;5073386;28;20270;-83
2021/04/18 10:55:13;;;;;;;9.73;7.78;;;;;;;;;;5073050;28;20628;-83
2021/04/18 10:57:40;;;;;;;10.57;9.13;;;;;;;;;;5073762;28;20659;-83
2021/04/18 11:00:09;;;;;;;11.88;7.90;;;;;;;;;;5074369;28;20197;-84
2021/04/18 11:02:36;;;;;;;11.10;8.77;;;;;;;;;;5073264;28;20229;-84
2021/04/18 11:05:05;;;;;;;9.18;8.02;;;;;;;;;;5073375;28;20242;-83
2021/04/18 11:07:32;;;;;;;12.13;8.60;;;;;;;;;;5073483;28;20304;-83
2021/04/18 11:10:00;;;;;;;9.43;8.15;;;;;;;;;;5074219;28;20197;-84
2021/04/18 11:12:27;;;;;;;11.15;8.82;;;;;;;;;;5074049;28;20729;-85
2021/04/18 11:14:54;;;;;;;10.63;8.98;;;;;;;;;;5073799;28;20582;-84
2021/04/18 11:17:21;;;;;;;8.38;7.32;;;;;;;;;;5073122;28;20220;-84
2021/04/18 11:19:47;;;;;;;9.10;7.20;;;;;;;;;;5073458;28;20554;-85
2021/04/18 11:22:14;;;;;;;13.70;8.30;;;;;;;;;;5073288;28;20256;-84
2021/04/18 11:24:42;;;;;;;9.00;7.13;;;;;;;;;;5073917;28;20574;-83
2021/04/18 11:27:09;;;;;;;15.10;8.23;;;;;;;;;;5073446;28;20197;-85
2021/04/18 11:29:37;;;;;;;9.50;8.45;;;;;;;;;;5072761;28;20556;-83
2021/04/18 11:32:05;;;;;;;7.97;7.20;;;;;;;;;;5073410;28;20596;-83
2021/04/18 11:34:32;;;;;;;9.25;7.22;;;;;;;;;;5071539;28;20201;-83
2021/04/18 11:36:59;;;;;;;10.95;7.55;;;;;;;;;;5072024;28;20205;-84
2021/04/18 11:39:26;;;;;;;10.63;8.38;;;;;;;;;;5072559;28;20258;-83
2021/04/18 11:41:54;;;;;;;9.40;8.10;;;;;;;;;;5071382;28;20295;-84
2021/04/18 11:44:21;;;;;;;9.50;7.65;;;;;;;;;;5071977;28;20205;-83
2021/04/18 11:46:48;;;;;;;9.23;6.93;;;;;;;;;;5071528;28;20181;-84
2021/04/18 11:49:15;;;;;;;10.20;8.45;;;;;;;;;;5071598;28;20197;-83
2021/04/18 11:51:42;;;;;;;9.10;7.55;;;;;;;;;;5070095;28;20795;-84
2021/04/18 11:54:10;;;;;;;8.13;7.30;;;;;;;;;;5071163;28;20251;-84
2021/04/18 11:56:37;;;;;;;9.50;7.50;;;;;;;;;;5071004;28;20620;-84
2021/04/18 11:59:05;;;;;;;7.88;7.03;;;;;;;;;;5071040;28;20203;-84
2021/04/18 12:01:34;;;;;;;8.80;7.47;;;;;;;;;;5072802;28;20224;-84
2021/04/18 12:04:01;;;;;;;7.72;6.65;;;;;;;;;;5079311;28;20751;-84
2021/04/18 12:06:28;;;;;;;7.35;6.65;;;;;;;;;;5080641;28;20630;-84
2021/04/18 12:08:55;;;;;;;8.05;7.20;;;;;;;;;;5081884;28;20279;-84
2021/04/18 12:11:23;;;;;;;7.40;6.13;;;;;;;;;;5089302;28;20223;-83
2021/04/18 12:13:50;;;;;;;9.15;7.63;;;;;;;;;;5086450;28;20267;-84
2021/04/18 12:16:18;;;;;;;6.72;6.10;;;;;;;;;;5081210;28;20192;-84
2021/04/18 12:18:45;;;;;;;7.85;7.05;;;;;;;;;;5079987;28;20238;-84
2021/04/18 12:21:13;;;;;;;8.13;7.35;;;;;;;;;;5083171;28;20212;-83
2021/04/18 12:23:40;;;;;;;7.05;6.35;;;;;;;;;;5084977;28;20564;-83
2021/04/18 12:26:07;;;;;;;6.30;5.70;;;;;;;;;;5083038;28;20220;-84
2021/04/18 12:28:34;;;;;;;7.85;6.38;;;;;;;;;;5082742;28;20281;-84
2021/04/18 12:31:01;;;;;;;9.07;6.32;;;;;;;;;;5083001;28;20710;-84
2021/04/18 12:33:29;;;;;;;7.00;6.40;;;;;;;;;;5084355;28;20621;-83
2021/04/18 12:35:56;;;;;;;8.05;6.78;;;;;;;;;;5079868;28;20204;-84
2021/04/18 12:38:23;;;;;;;9.48;7.30;;;;;;;;;;5074771;28;20558;-83
2021/04/18 12:40:50;;;;;;;6.88;6.18;;;;;;;;;;5074402;28;20316;-84
2021/04/18 12:43:17;;;;;;;6.15;5.55;;;;;;;;;;5082185;28;20197;-83
2021/04/18 12:45:44;;;;;;;7.40;6.65;;;;;;;;;;5082231;28;20189;-84
2021/04/18 12:48:11;;;;;;;10.00;6.63;;;;;;;;;;5083625;28;20193;-83
2021/04/18 12:50:39;;;;;;;9.68;5.57;;;;;;;;;;5084348;28;20201;-84
2021/04/18 12:53:06;;;;;;;6.18;5.57;;;;;;;;;;5082629;28;20270;-83
2021/04/18 12:55:33;;;;;;;10.27;6.43;;;;;;;;;;5087898;28;20651;-84
2021/04/18 12:58:00;;;;;;;8.43;6.38;;;;;;;;;;5095544;28;20635;-84
2021/04/18 13:00:28;;;;;;;6.82;5.85;;;;;;;;;;5091655;28;20193;-84
2021/04/18 13:02:58;;;;;;;7.25;6.35;;;;;;;;;;5081966;28;20998;-84
2021/04/18 13:05:25;;;;;;;11.38;6.85;;;;;;;;;;5079991;28;20291;-84
2021/04/18 13:07:53;;;;;;;9.70;6.68;;;;;;;;;;5075398;28;20189;-84
2021/04/18 13:10:22;;;;;;;8.23;6.63;;;;;;;;;;5074810;28;20239;-84
2021/04/18 13:12:49;;;;;;;6.55;5.85;;;;;;;;;;5083282;28;20247;-87
2021/04/18 13:15:21;;;;;;;10.50;6.15;;;;;;;;;;5076901;28;20242;-84
2021/04/18 13:17:49;;;;;;;7.45;6.75;;;;;;;;;;5074287;28;20542;-84
2021/04/18 13:20:17;;;;;;;6.95;6.25;;;;;;;;;;5074820;28;20177;-83
2021/04/18 13:22:44;;;;;;;7.65;5.80;;;;;;;;;;5074642;28;20221;-84
2021/04/18 13:25:13;;;;;;;7.68;6.03;;;;;;;;;;5080237;28;20666;-83
2021/04/18 13:27:41;;;;;;;6.93;5.78;;;;;;;;;;5093842;28;20223;-84
2021/04/18 13:30:10;;;;;;;5.70;4.95;;;;;;;;;;5094321;28;20191;-83
2021/04/18 13:32:37;;;;;;;6.88;6.13;;;;;;;;;;5093252;28;20278;-84
2021/04/18 13:35:06;;;;;;;5.90;5.35;;;;;;;;;;5093911;28;20214;-84
2021/04/18 13:37:33;;;;;;;6.63;5.93;;;;;;;;;;5094709;28;20200;-84
2021/04/18 13:40:00;;;;;;;7.20;6.43;;;;;;;;;;5094027;28;20202;-85
2021/04/18 13:42:27;;;;;;;7.35;5.88;;;;;;;;;;5094718;28;20290;-84
2021/04/18 13:44:54;;;;;;;6.32;5.78;;;;;;;;;;5093959;28;20196;-84
2021/04/18 13:47:21;;;;;;;5.45;4.95;;;;;;;;;;5093943;28;20616;-84
2021/04/18 13:49:49;;;;;;;6.30;5.53;;;;;;;;;;5093981;28;20264;-84
2021/04/18 13:52:16;;;;;;;6.57;5.97;;;;;;;;;;5093492;28;20234;-84
2021/04/18 13:54:43;;;;;;;6.80;6.10;;;;;;;;;;5094472;28;20253;-84
2021/04/18 13:57:10;;;;;;;16.95;5.88;;;;;;;;;;5093931;28;20189;-84
2021/04/18 13:59:37;;;;;;;4.63;4.22;;;;;;;;;;5094683;28;20241;-84
2021/04/18 14:02:04;;;;;;;5.50;4.63;;;;;;;;;;5094505;28;20223;-84
2021/04/18 14:04:31;;;;;;;4.72;4.18;;;;;;;;;;5094360;28;20674;-84
2021/04/18 14:06:58;;;;;;;7.72;5.30;;;;;;;;;;5094627;28;20189;-84
2021/04/18 14:09:25;;;;;;;6.00;4.80;;;;;;;;;;5095115;28;20224;-84
2021/04/18 14:11:52;;;;;;;5.57;4.70;;;;;;;;;;5093545;28;20216;-84
2021/04/18 14:14:19;;;;;;;5.65;5.13;;;;;;;;;;5094368;28;20296;-84
2021/04/18 14:16:46;;;;;;;7.38;6.18;;;;;;;;;;5092766;28;20211;-84
2021/04/18 14:19:13;;;;;;;6.80;5.65;;;;;;;;;;5094054;28;20212;-84
2021/04/18 14:21:40;;;;;;;6.50;5.93;;;;;;;;;;5094158;28;20216;-84
2021/04/18 14:24:09;;;;;;;5.97;5.03;;;;;;;;;;5094274;28;20204;-84
2021/04/18 14:26:36;;;;;;;5.32;4.82;;;;;;;;;;5093371;28;20204;-84
2021/04/18 14:29:03;;;;;;;5.22;4.72;;;;;;;;;;5093757;28;20204;-84
2021/04/18 14:31:30;;;;;;;5.93;5.43;;;;;;;;;;5093805;28;20238;-84
2021/04/18 14:33:58;;;;;;;6.97;5.55;;;;;;;;;;5093686;28;20196;-84
2021/04/18 14:36:25;;;;;;;5.55;4.95;;;;;;;;;;5092941;28;20204;-84
2021/04/18 14:38:52;;;;;;;5.93;5.18;;;;;;;;;;5093751;28;20245;-83
2021/04/18 14:41:19;;;;;;;5.72;4.72;;;;;;;;;;5093295;28;20227;-83
2021/04/18 14:43:46;;;;;;;7.13;5.15;;;;;;;;;;5092903;28;20228;-84